Terminal Aerodrome Forecast
Issued by NWS Grand Forks, ND

Home | Current Version | Previous Version | Graphics & Text | Print | Product List | Glossary On
Versions: 1 2 3 4 5 6 7 8 9 10 11 12 13 14 15
000
FTUS43 KFGF 261900 AAA
TAFFAR
TAF AMD
KFAR 261935Z 2620/2718 27015G23KT P6SM SCT050
     FM262100 28019G26KT P6SM VCSH BKN050
     FM270200 29014G21KT P6SM BKN040
     FM270600 31014KT P6SM BKN025
     FM271200 33015G24KT P6SM VCSH BKN025=

USA.gov is the U.S. government's official web portal to all federal, state and local government web resources and services.